sensor_id;sensor_type;location;lat;lon;timestamp;P1;durP1;ratioP1;P2;durP2;ratioP2
18875;SDS011;9570;50.854;13.778;2022-08-19T00:00:17;17.77;;;15.70;;
18875;SDS011;9570;50.854;13.778;2022-08-19T00:02:43;18.83;;;16.83;;
18875;SDS011;9570;50.854;13.778;2022-08-19T00:05:11;20.40;;;18.17;;
18875;SDS011;9570;50.854;13.778;2022-08-19T00:07:38;20.87;;;18.60;;
18875;SDS011;9570;50.854;13.778;2022-08-19T00:10:05;21.77;;;18.63;;
18875;SDS011;9570;50.854;13.778;2022-08-19T00:12:32;23.70;;;20.33;;
18875;SDS011;9570;50.854;13.778;2022-08-19T00:14:58;21.57;;;19.27;;
18875;SDS011;9570;50.854;13.778;2022-08-19T00:17:23;21.50;;;19.27;;
18875;SDS011;9570;50.854;13.778;2022-08-19T00:19:49;23.20;;;20.73;;
18875;SDS011;9570;50.854;13.778;2022-08-19T00:22:14;25.63;;;21.67;;
18875;SDS011;9570;50.854;13.778;2022-08-19T00:24:42;23.00;;;20.67;;
18875;SDS011;9570;50.854;13.778;2022-08-19T00:27:08;22.47;;;20.07;;
18875;SDS011;9570;50.854;13.778;2022-08-19T00:29:34;25.33;;;22.57;;
18875;SDS011;9570;50.854;13.778;2022-08-19T00:31:59;26.20;;;23.10;;
18875;SDS011;9570;50.854;13.778;2022-08-19T00:34:25;24.53;;;21.80;;
18875;SDS011;9570;50.854;13.778;2022-08-19T00:36:52;24.70;;;21.60;;
18875;SDS011;9570;50.854;13.778;2022-08-19T00:39:18;22.53;;;20.33;;
18875;SDS011;9570;50.854;13.778;2022-08-19T00:41:44;22.03;;;19.83;;
18875;SDS011;9570;50.854;13.778;2022-08-19T00:44:14;21.80;;;19.50;;
18875;SDS011;9570;50.854;13.778;2022-08-19T00:46:45;20.47;;;18.33;;
18875;SDS011;9570;50.854;13.778;2022-08-19T00:49:13;21.10;;;19.00;;
18875;SDS011;9570;50.854;13.778;2022-08-19T00:51:42;22.63;;;20.40;;
18875;SDS011;9570;50.854;13.778;2022-08-19T00:54:11;20.90;;;18.80;;
18875;SDS011;9570;50.854;13.778;2022-08-19T00:56:37;20.43;;;18.33;;
18875;SDS011;9570;50.854;13.778;2022-08-19T00:59:03;24.33;;;20.20;;
18875;SDS011;9570;50.854;13.778;2022-08-19T01:01:35;21.33;;;19.20;;
18875;SDS011;9570;50.854;13.778;2022-08-19T01:04:04;20.63;;;18.33;;
18875;SDS011;9570;50.854;13.778;2022-08-19T01:06:30;20.07;;;17.93;;
18875;SDS011;9570;50.854;13.778;2022-08-19T01:08:57;22.87;;;19.53;;
18875;SDS011;9570;50.854;13.778;2022-08-19T01:11:24;20.87;;;18.53;;
18875;SDS011;9570;50.854;13.778;2022-08-19T01:13:51;20.20;;;17.97;;
18875;SDS011;9570;50.854;13.778;2022-08-19T01:16:19;20.13;;;16.80;;
18875;SDS011;9570;50.854;13.778;2022-08-19T01:18:47;20.73;;;18.33;;
18875;SDS011;9570;50.854;13.778;2022-08-19T01:21:27;21.47;;;19.27;;
18875;SDS011;9570;50.854;13.778;2022-08-19T01:23:57;20.37;;;18.40;;
18875;SDS011;9570;50.854;13.778;2022-08-19T01:26:23;22.67;;;20.37;;
18875;SDS011;9570;50.854;13.778;2022-08-19T01:28:51;22.37;;;20.07;;
18875;SDS011;9570;50.854;13.778;2022-08-19T01:31:20;25.97;;;20.97;;
18875;SDS011;9570;50.854;13.778;2022-08-19T01:33:49;22.03;;;19.90;;
18875;SDS011;9570;50.854;13.778;2022-08-19T01:36:21;23.97;;;21.40;;
18875;SDS011;9570;50.854;13.778;2022-08-19T01:38:50;23.27;;;20.87;;
18875;SDS011;9570;50.854;13.778;2022-08-19T01:41:17;24.00;;;21.23;;
18875;SDS011;9570;50.854;13.778;2022-08-19T01:43:43;24.60;;;20.33;;
18875;SDS011;9570;50.854;13.778;2022-08-19T01:46:09;22.90;;;20.47;;
18875;SDS011;9570;50.854;13.778;2022-08-19T01:48:36;24.27;;;21.77;;
18875;SDS011;9570;50.854;13.778;2022-08-19T01:51:03;24.40;;;19.77;;
18875;SDS011;9570;50.854;13.778;2022-08-19T01:53:29;23.83;;;21.33;;
18875;SDS011;9570;50.854;13.778;2022-08-19T01:55:55;23.87;;;21.30;;
18875;SDS011;9570;50.854;13.778;2022-08-19T01:58:22;24.87;;;21.67;;
18875;SDS011;9570;50.854;13.778;2022-08-19T02:00:54;23.20;;;20.70;;
18875;SDS011;9570;50.854;13.778;2022-08-19T02:03:19;23.37;;;20.97;;
18875;SDS011;9570;50.854;13.778;2022-08-19T02:05:45;23.77;;;20.53;;
18875;SDS011;9570;50.854;13.778;2022-08-19T02:08:10;25.33;;;21.60;;
18875;SDS011;9570;50.854;13.778;2022-08-19T02:10:40;24.20;;;21.80;;
18875;SDS011;9570;50.854;13.778;2022-08-19T02:13:07;27.00;;;22.23;;
18875;SDS011;9570;50.854;13.778;2022-08-19T02:15:33;25.27;;;21.97;;
18875;SDS011;9570;50.854;13.778;2022-08-19T02:17:58;24.73;;;22.27;;
18875;SDS011;9570;50.854;13.778;2022-08-19T02:20:24;25.00;;;20.03;;
18875;SDS011;9570;50.854;13.778;2022-08-19T02:22:49;26.13;;;23.33;;
18875;SDS011;9570;50.854;13.778;2022-08-19T02:25:15;23.53;;;21.07;;
18875;SDS011;9570;50.854;13.778;2022-08-19T02:27:40;25.47;;;22.53;;
18875;SDS011;9570;50.854;13.778;2022-08-19T02:30:09;25.00;;;22.33;;
18875;SDS011;9570;50.854;13.778;2022-08-19T02:32:37;24.17;;;21.57;;
18875;SDS011;9570;50.854;13.778;2022-08-19T02:35:03;25.33;;;22.57;;
18875;SDS011;9570;50.854;13.778;2022-08-19T02:37:29;26.47;;;22.63;;
18875;SDS011;9570;50.854;13.778;2022-08-19T02:40:13;24.53;;;21.97;;
18875;SDS011;9570;50.854;13.778;2022-08-19T02:42:39;25.00;;;21.93;;
18875;SDS011;9570;50.854;13.778;2022-08-19T02:45:06;23.73;;;21.30;;
18875;SDS011;9570;50.854;13.778;2022-08-19T02:47:32;27.60;;;24.20;;
18875;SDS011;9570;50.854;13.778;2022-08-19T02:49:59;26.00;;;23.37;;
18875;SDS011;9570;50.854;13.778;2022-08-19T02:52:25;24.50;;;21.83;;
18875;SDS011;9570;50.854;13.778;2022-08-19T02:54:52;25.30;;;22.63;;
18875;SDS011;9570;50.854;13.778;2022-08-19T02:57:17;23.37;;;20.97;;
18875;SDS011;9570;50.854;13.778;2022-08-19T02:59:43;24.67;;;22.13;;
18875;SDS011;9570;50.854;13.778;2022-08-19T03:02:08;23.10;;;20.80;;
18875;SDS011;9570;50.854;13.778;2022-08-19T03:04:33;24.03;;;20.87;;
18875;SDS011;9570;50.854;13.778;2022-08-19T03:06:59;23.33;;;20.67;;
18875;SDS011;9570;50.854;13.778;2022-08-19T03:09:24;24.80;;;22.27;;
18875;SDS011;9570;50.854;13.778;2022-08-19T03:11:50;24.50;;;21.60;;
18875;SDS011;9570;50.854;13.778;2022-08-19T03:14:15;24.73;;;22.00;;
18875;SDS011;9570;50.854;13.778;2022-08-19T03:16:47;23.37;;;20.93;;
18875;SDS011;9570;50.854;13.778;2022-08-19T03:19:16;24.97;;;22.17;;
18875;SDS011;9570;50.854;13.778;2022-08-19T03:21:43;24.97;;;22.43;;
18875;SDS011;9570;50.854;13.778;2022-08-19T03:24:10;24.13;;;21.67;;
18875;SDS011;9570;50.854;13.778;2022-08-19T03:26:43;24.17;;;21.13;;
18875;SDS011;9570;50.854;13.778;2022-08-19T03:29:11;24.53;;;22.03;;
18875;SDS011;9570;50.854;13.778;2022-08-19T03:31:38;24.67;;;22.03;;
18875;SDS011;9570;50.854;13.778;2022-08-19T03:34:06;24.30;;;21.80;;
18875;SDS011;9570;50.854;13.778;2022-08-19T03:36:31;27.30;;;22.23;;
18875;SDS011;9570;50.854;13.778;2022-08-19T03:38:58;23.53;;;21.13;;
18875;SDS011;9570;50.854;13.778;2022-08-19T03:41:29;26.10;;;23.37;;
18875;SDS011;9570;50.854;13.778;2022-08-19T03:43:57;25.73;;;23.03;;
18875;SDS011;9570;50.854;13.778;2022-08-19T03:46:24;25.20;;;22.50;;
18875;SDS011;9570;50.854;13.778;2022-08-19T03:48:52;24.83;;;22.20;;
18875;SDS011;9570;50.854;13.778;2022-08-19T03:53:48;25.60;;;23.00;;
18875;SDS011;9570;50.854;13.778;2022-08-19T03:56:13;25.53;;;22.87;;
18875;SDS011;9570;50.854;13.778;2022-08-19T03:58:39;26.93;;;24.10;;
18875;SDS011;9570;50.854;13.778;2022-08-19T04:01:13;26.43;;;22.97;;
18875;SDS011;9570;50.854;13.778;2022-08-19T04:03:44;26.20;;;23.50;;
18875;SDS011;9570;50.854;13.778;2022-08-19T04:08:37;26.43;;;23.73;;
18875;SDS011;9570;50.854;13.778;2022-08-19T04:11:06;26.10;;;23.40;;
18875;SDS011;9570;50.854;13.778;2022-08-19T04:13:33;28.23;;;25.27;;
18875;SDS011;9570;50.854;13.778;2022-08-19T04:15:59;28.20;;;23.87;;
18875;SDS011;9570;50.854;13.778;2022-08-19T04:18:24;29.50;;;26.07;;
18875;SDS011;9570;50.854;13.778;2022-08-19T04:20:50;26.13;;;23.40;;
18875;SDS011;9570;50.854;13.778;2022-08-19T04:23:16;27.57;;;24.70;;
18875;SDS011;9570;50.854;13.778;2022-08-19T04:25:42;27.33;;;24.37;;
18875;SDS011;9570;50.854;13.778;2022-08-19T04:28:09;25.83;;;22.70;;
18875;SDS011;9570;50.854;13.778;2022-08-19T04:30:37;31.00;;;27.70;;
18875;SDS011;9570;50.854;13.778;2022-08-19T04:33:06;30.13;;;25.97;;
18875;SDS011;9570;50.854;13.778;2022-08-19T04:35:39;28.30;;;25.27;;
18875;SDS011;9570;50.854;13.778;2022-08-19T04:38:07;28.33;;;25.20;;
18875;SDS011;9570;50.854;13.778;2022-08-19T04:40:34;30.73;;;27.00;;
18875;SDS011;9570;50.854;13.778;2022-08-19T04:43:23;30.53;;;27.23;;
18875;SDS011;9570;50.854;13.778;2022-08-19T04:45:48;28.40;;;25.23;;
18875;SDS011;9570;50.854;13.778;2022-08-19T04:48:14;30.40;;;27.07;;
18875;SDS011;9570;50.854;13.778;2022-08-19T04:50:40;31.23;;;27.13;;
18875;SDS011;9570;50.854;13.778;2022-08-19T04:53:07;31.63;;;25.43;;
18875;SDS011;9570;50.854;13.778;2022-08-19T04:55:33;30.13;;;27.03;;
18875;SDS011;9570;50.854;13.778;2022-08-19T04:58:00;28.67;;;25.67;;
18875;SDS011;9570;50.854;13.778;2022-08-19T05:00:27;31.80;;;28.27;;
18875;SDS011;9570;50.854;13.778;2022-08-19T05:02:52;30.10;;;26.83;;
18875;SDS011;9570;50.854;13.778;2022-08-19T05:05:18;34.17;;;29.63;;
18875;SDS011;9570;50.854;13.778;2022-08-19T05:07:44;31.20;;;27.03;;
18875;SDS011;9570;50.854;13.778;2022-08-19T05:10:10;31.30;;;26.67;;
18875;SDS011;9570;50.854;13.778;2022-08-19T05:12:36;28.37;;;25.43;;
18875;SDS011;9570;50.854;13.778;2022-08-19T05:15:02;30.90;;;26.30;;
18875;SDS011;9570;50.854;13.778;2022-08-19T05:17:29;27.10;;;24.23;;
18875;SDS011;9570;50.854;13.778;2022-08-19T05:19:55;25.43;;;22.77;;
18875;SDS011;9570;50.854;13.778;2022-08-19T05:22:40;27.60;;;24.60;;
18875;SDS011;9570;50.854;13.778;2022-08-19T05:25:08;25.63;;;22.90;;
18875;SDS011;9570;50.854;13.778;2022-08-19T05:27:37;27.80;;;24.80;;
18875;SDS011;9570;50.854;13.778;2022-08-19T05:30:03;25.20;;;22.57;;
18875;SDS011;9570;50.854;13.778;2022-08-19T05:32:30;23.27;;;19.23;;
18875;SDS011;9570;50.854;13.778;2022-08-19T05:34:55;21.93;;;19.83;;
18875;SDS011;9570;50.854;13.778;2022-08-19T05:37:21;21.30;;;19.10;;
18875;SDS011;9570;50.854;13.778;2022-08-19T05:39:47;20.67;;;17.13;;
18875;SDS011;9570;50.854;13.778;2022-08-19T05:42:14;20.27;;;18.27;;
18875;SDS011;9570;50.854;13.778;2022-08-19T05:44:41;19.10;;;17.00;;
18875;SDS011;9570;50.854;13.778;2022-08-19T05:47:09;19.37;;;17.20;;
18875;SDS011;9570;50.854;13.778;2022-08-19T05:49:38;17.97;;;16.17;;
18875;SDS011;9570;50.854;13.778;2022-08-19T05:52:08;18.97;;;16.97;;
18875;SDS011;9570;50.854;13.778;2022-08-19T05:54:36;21.73;;;18.90;;
18875;SDS011;9570;50.854;13.778;2022-08-19T05:57:04;19.80;;;17.70;;
18875;SDS011;9570;50.854;13.778;2022-08-19T05:59:30;19.43;;;17.47;;
18875;SDS011;9570;50.854;13.778;2022-08-19T06:01:56;19.07;;;17.17;;
18875;SDS011;9570;50.854;13.778;2022-08-19T06:04:22;18.87;;;16.97;;
18875;SDS011;9570;50.854;13.778;2022-08-19T06:06:48;21.93;;;17.23;;
18875;SDS011;9570;50.854;13.778;2022-08-19T06:09:17;18.07;;;16.27;;
18875;SDS011;9570;50.854;13.778;2022-08-19T06:11:44;18.07;;;16.23;;
18875;SDS011;9570;50.854;13.778;2022-08-19T06:14:18;17.97;;;16.20;;
18875;SDS011;9570;50.854;13.778;2022-08-19T06:16:47;17.90;;;15.90;;
18875;SDS011;9570;50.854;13.778;2022-08-19T06:19:14;17.20;;;15.17;;
18875;SDS011;9570;50.854;13.778;2022-08-19T06:21:42;17.10;;;15.40;;
18875;SDS011;9570;50.854;13.778;2022-08-19T06:24:10;17.80;;;16.00;;
18875;SDS011;9570;50.854;13.778;2022-08-19T06:26:40;16.67;;;14.97;;
18875;SDS011;9570;50.854;13.778;2022-08-19T06:29:08;19.30;;;17.17;;
18875;SDS011;9570;50.854;13.778;2022-08-19T06:31:35;19.00;;;17.10;;
18875;SDS011;9570;50.854;13.778;2022-08-19T06:34:01;18.80;;;16.90;;
18875;SDS011;9570;50.854;13.778;2022-08-19T06:36:30;20.20;;;18.20;;
18875;SDS011;9570;50.854;13.778;2022-08-19T06:39:03;19.33;;;16.83;;
18875;SDS011;9570;50.854;13.778;2022-08-19T06:41:30;19.50;;;17.40;;
18875;SDS011;9570;50.854;13.778;2022-08-19T06:43:56;18.50;;;16.70;;
18875;SDS011;9570;50.854;13.778;2022-08-19T06:46:22;18.77;;;16.80;;
18875;SDS011;9570;50.854;13.778;2022-08-19T06:48:48;17.00;;;15.33;;
18875;SDS011;9570;50.854;13.778;2022-08-19T06:51:14;17.00;;;15.30;;
18875;SDS011;9570;50.854;13.778;2022-08-19T06:53:43;16.50;;;14.90;;
18875;SDS011;9570;50.854;13.778;2022-08-19T06:56:14;15.60;;;13.97;;
18875;SDS011;9570;50.854;13.778;2022-08-19T06:58:40;14.10;;;12.80;;
18875;SDS011;9570;50.854;13.778;2022-08-19T07:01:06;14.50;;;13.10;;
18875;SDS011;9570;50.854;13.778;2022-08-19T07:03:33;15.37;;;13.90;;
18875;SDS011;9570;50.854;13.778;2022-08-19T07:06:04;14.97;;;13.47;;
18875;SDS011;9570;50.854;13.778;2022-08-19T07:08:32;14.17;;;12.87;;
18875;SDS011;9570;50.854;13.778;2022-08-19T07:11:00;14.90;;;13.40;;
18875;SDS011;9570;50.854;13.778;2022-08-19T07:13:26;15.10;;;13.70;;
18875;SDS011;9570;50.854;13.778;2022-08-19T07:15:51;14.83;;;13.33;;
18875;SDS011;9570;50.854;13.778;2022-08-19T07:18:18;14.73;;;13.20;;
18875;SDS011;9570;50.854;13.778;2022-08-19T07:20:45;16.40;;;14.80;;
18875;SDS011;9570;50.854;13.778;2022-08-19T07:23:10;15.40;;;13.90;;
18875;SDS011;9570;50.854;13.778;2022-08-19T07:25:36;15.67;;;14.17;;
18875;SDS011;9570;50.854;13.778;2022-08-19T07:28:03;14.27;;;12.97;;
18875;SDS011;9570;50.854;13.778;2022-08-19T07:30:29;16.00;;;14.50;;
18875;SDS011;9570;50.854;13.778;2022-08-19T07:32:55;16.10;;;14.60;;
18875;SDS011;9570;50.854;13.778;2022-08-19T07:35:21;17.13;;;14.50;;
18875;SDS011;9570;50.854;13.778;2022-08-19T07:37:47;14.80;;;13.30;;
18875;SDS011;9570;50.854;13.778;2022-08-19T07:40:12;16.20;;;14.60;;
18875;SDS011;9570;50.854;13.778;2022-08-19T07:42:38;15.97;;;14.10;;
18875;SDS011;9570;50.854;13.778;2022-08-19T07:45:04;15.77;;;14.07;;
18875;SDS011;9570;50.854;13.778;2022-08-19T07:47:31;16.23;;;14.63;;
18875;SDS011;9570;50.854;13.778;2022-08-19T07:49:57;15.67;;;14.00;;
18875;SDS011;9570;50.854;13.778;2022-08-19T07:52:23;15.60;;;13.90;;
18875;SDS011;9570;50.854;13.778;2022-08-19T07:54:48;14.87;;;13.40;;
18875;SDS011;9570;50.854;13.778;2022-08-19T07:57:14;15.53;;;14.03;;
18875;SDS011;9570;50.854;13.778;2022-08-19T07:59:40;16.47;;;14.87;;
18875;SDS011;9570;50.854;13.778;2022-08-19T08:02:05;15.50;;;13.93;;
18875;SDS011;9570;50.854;13.778;2022-08-19T08:04:31;15.53;;;13.73;;
18875;SDS011;9570;50.854;13.778;2022-08-19T08:07:15;17.13;;;15.33;;
18875;SDS011;9570;50.854;13.778;2022-08-19T08:10:00;17.73;;;15.83;;
18875;SDS011;9570;50.854;13.778;2022-08-19T08:12:28;15.83;;;14.03;;
18875;SDS011;9570;50.854;13.778;2022-08-19T08:14:59;17.23;;;15.50;;
18875;SDS011;9570;50.854;13.778;2022-08-19T08:17:29;16.60;;;14.40;;
18875;SDS011;9570;50.854;13.778;2022-08-19T08:19:57;15.63;;;13.90;;
18875;SDS011;9570;50.854;13.778;2022-08-19T08:22:23;16.10;;;13.70;;
18875;SDS011;9570;50.854;13.778;2022-08-19T08:25:12;17.23;;;14.40;;
18875;SDS011;9570;50.854;13.778;2022-08-19T08:27:44;16.77;;;13.33;;
18875;SDS011;9570;50.854;13.778;2022-08-19T08:30:12;16.77;;;15.07;;
18875;SDS011;9570;50.854;13.778;2022-08-19T08:32:42;14.87;;;13.33;;
18875;SDS011;9570;50.854;13.778;2022-08-19T08:35:09;17.67;;;14.90;;
18875;SDS011;9570;50.854;13.778;2022-08-19T08:37:37;14.73;;;13.33;;
18875;SDS011;9570;50.854;13.778;2022-08-19T08:40:05;16.37;;;13.97;;
18875;SDS011;9570;50.854;13.778;2022-08-19T08:42:44;15.20;;;13.67;;
18875;SDS011;9570;50.854;13.778;2022-08-19T08:45:17;14.33;;;12.93;;
18875;SDS011;9570;50.854;13.778;2022-08-19T08:47:44;15.30;;;13.13;;
18875;SDS011;9570;50.854;13.778;2022-08-19T08:50:17;14.40;;;12.97;;
18875;SDS011;9570;50.854;13.778;2022-08-19T08:52:48;14.30;;;12.70;;
18875;SDS011;9570;50.854;13.778;2022-08-19T08:55:17;15.17;;;13.57;;
18875;SDS011;9570;50.854;13.778;2022-08-19T09:00:17;13.63;;;12.23;;
18875;SDS011;9570;50.854;13.778;2022-08-19T09:02:46;15.27;;;13.77;;
18875;SDS011;9570;50.854;13.778;2022-08-19T09:05:12;14.97;;;13.47;;
18875;SDS011;9570;50.854;13.778;2022-08-19T09:07:41;15.50;;;13.90;;
18875;SDS011;9570;50.854;13.778;2022-08-19T09:13:27;12.03;;;10.77;;
18875;SDS011;9570;50.854;13.778;2022-08-19T09:16:06;12.60;;;11.30;;
18875;SDS011;9570;50.854;13.778;2022-08-19T09:18:42;13.97;;;10.97;;
18875;SDS011;9570;50.854;13.778;2022-08-19T09:21:12;12.23;;;10.30;;
18875;SDS011;9570;50.854;13.778;2022-08-19T09:23:38;14.13;;;12.53;;
18875;SDS011;9570;50.854;13.778;2022-08-19T09:26:14;13.77;;;12.07;;
18875;SDS011;9570;50.854;13.778;2022-08-19T09:28:43;15.23;;;13.50;;
18875;SDS011;9570;50.854;13.778;2022-08-19T09:31:14;15.77;;;14.20;;
18875;SDS011;9570;50.854;13.778;2022-08-19T09:33:42;14.97;;;13.37;;
18875;SDS011;9570;50.854;13.778;2022-08-19T09:36:11;14.57;;;13.07;;
18875;SDS011;9570;50.854;13.778;2022-08-19T09:38:39;15.37;;;13.20;;
18875;SDS011;9570;50.854;13.778;2022-08-19T09:41:06;14.53;;;12.83;;
18875;SDS011;9570;50.854;13.778;2022-08-19T09:43:34;14.57;;;13.07;;
18875;SDS011;9570;50.854;13.778;2022-08-19T09:46:04;14.77;;;13.27;;
18875;SDS011;9570;50.854;13.778;2022-08-19T09:48:35;13.43;;;12.03;;
18875;SDS011;9570;50.854;13.778;2022-08-19T09:51:05;14.43;;;12.60;;
18875;SDS011;9570;50.854;13.778;2022-08-19T09:53:36;16.77;;;13.10;;
18875;SDS011;9570;50.854;13.778;2022-08-19T09:56:03;12.07;;;10.87;;
18875;SDS011;9570;50.854;13.778;2022-08-19T09:58:29;12.80;;;11.47;;
18875;SDS011;9570;50.854;13.778;2022-08-19T10:00:55;12.50;;;10.60;;
18875;SDS011;9570;50.854;13.778;2022-08-19T10:03:23;13.03;;;10.73;;
18875;SDS011;9570;50.854;13.778;2022-08-19T10:05:48;12.73;;;9.97;;
18875;SDS011;9570;50.854;13.778;2022-08-19T10:08:21;11.57;;;9.60;;
18875;SDS011;9570;50.854;13.778;2022-08-19T10:10:50;10.90;;;9.70;;
18875;SDS011;9570;50.854;13.778;2022-08-19T10:13:17;11.93;;;9.27;;
18875;SDS011;9570;50.854;13.778;2022-08-19T10:15:47;10.27;;;9.13;;
18875;SDS011;9570;50.854;13.778;2022-08-19T10:18:15;9.57;;;8.67;;
18875;SDS011;9570;50.854;13.778;2022-08-19T10:20:42;9.77;;;8.77;;
18875;SDS011;9570;50.854;13.778;2022-08-19T10:23:08;9.63;;;7.97;;
18875;SDS011;9570;50.854;13.778;2022-08-19T10:25:34;8.40;;;7.60;;
18875;SDS011;9570;50.854;13.778;2022-08-19T10:27:59;9.53;;;8.53;;
18875;SDS011;9570;50.854;13.778;2022-08-19T10:30:25;9.20;;;8.30;;
18875;SDS011;9570;50.854;13.778;2022-08-19T10:32:51;8.50;;;7.70;;
18875;SDS011;9570;50.854;13.778;2022-08-19T10:35:16;7.73;;;6.93;;
18875;SDS011;9570;50.854;13.778;2022-08-19T10:37:42;8.63;;;7.57;;
18875;SDS011;9570;50.854;13.778;2022-08-19T10:40:07;8.70;;;7.80;;
18875;SDS011;9570;50.854;13.778;2022-08-19T10:42:35;8.90;;;8.00;;
18875;SDS011;9570;50.854;13.778;2022-08-19T10:45:01;8.60;;;7.70;;
18875;SDS011;9570;50.854;13.778;2022-08-19T10:47:27;8.13;;;7.40;;
18875;SDS011;9570;50.854;13.778;2022-08-19T10:49:53;7.53;;;6.83;;
18875;SDS011;9570;50.854;13.778;2022-08-19T10:52:43;10.10;;;9.20;;
18875;SDS011;9570;50.854;13.778;2022-08-19T10:55:10;11.30;;;10.20;;
18875;SDS011;9570;50.854;13.778;2022-08-19T10:57:54;11.23;;;10.13;;
18875;SDS011;9570;50.854;13.778;2022-08-19T11:00:20;12.43;;;11.23;;
18875;SDS011;9570;50.854;13.778;2022-08-19T11:02:47;11.13;;;10.03;;
18875;SDS011;9570;50.854;13.778;2022-08-19T11:05:13;12.10;;;10.93;;
18875;SDS011;9570;50.854;13.778;2022-08-19T11:07:39;11.23;;;10.23;;
18875;SDS011;9570;50.854;13.778;2022-08-19T11:10:06;12.03;;;10.93;;
18875;SDS011;9570;50.854;13.778;2022-08-19T11:12:33;14.00;;;12.70;;
18875;SDS011;9570;50.854;13.778;2022-08-19T11:14:58;14.03;;;12.63;;
18875;SDS011;9570;50.854;13.778;2022-08-19T11:17:24;12.70;;;11.50;;
18875;SDS011;9570;50.854;13.778;2022-08-19T11:19:49;13.30;;;12.00;;
18875;SDS011;9570;50.854;13.778;2022-08-19T11:22:15;12.67;;;11.47;;
18875;SDS011;9570;50.854;13.778;2022-08-19T11:24:42;12.67;;;11.47;;
18875;SDS011;9570;50.854;13.778;2022-08-19T11:27:08;12.07;;;10.93;;
18875;SDS011;9570;50.854;13.778;2022-08-19T11:29:34;12.03;;;10.93;;
18875;SDS011;9570;50.854;13.778;2022-08-19T11:32:03;11.57;;;10.40;;
18875;SDS011;9570;50.854;13.778;2022-08-19T11:34:31;10.53;;;9.63;;
18875;SDS011;9570;50.854;13.778;2022-08-19T11:36:57;11.20;;;10.20;;
18875;SDS011;9570;50.854;13.778;2022-08-19T11:39:24;11.33;;;10.23;;
18875;SDS011;9570;50.854;13.778;2022-08-19T11:41:51;9.60;;;8.80;;
18875;SDS011;9570;50.854;13.778;2022-08-19T11:44:17;8.07;;;7.27;;
18875;SDS011;9570;50.854;13.778;2022-08-19T11:46:43;8.20;;;7.50;;
18875;SDS011;9570;50.854;13.778;2022-08-19T11:49:11;7.47;;;6.87;;
18875;SDS011;9570;50.854;13.778;2022-08-19T11:51:39;6.73;;;6.13;;
18875;SDS011;9570;50.854;13.778;2022-08-19T11:54:06;6.77;;;6.17;;
18875;SDS011;9570;50.854;13.778;2022-08-19T11:56:32;6.40;;;5.80;;
18875;SDS011;9570;50.854;13.778;2022-08-19T11:58:58;7.90;;;7.10;;
18875;SDS011;9570;50.854;13.778;2022-08-19T12:01:25;7.17;;;6.50;;
18875;SDS011;9570;50.854;13.778;2022-08-19T12:03:52;6.60;;;5.97;;
18875;SDS011;9570;50.854;13.778;2022-08-19T12:06:20;6.57;;;6.00;;
18875;SDS011;9570;50.854;13.778;2022-08-19T12:08:52;6.40;;;5.90;;
18875;SDS011;9570;50.854;13.778;2022-08-19T12:11:18;6.33;;;5.73;;
18875;SDS011;9570;50.854;13.778;2022-08-19T12:13:44;6.27;;;5.73;;
18875;SDS011;9570;50.854;13.778;2022-08-19T12:16:12;6.37;;;5.87;;
18875;SDS011;9570;50.854;13.778;2022-08-19T12:18:44;6.23;;;5.73;;
18875;SDS011;9570;50.854;13.778;2022-08-19T12:21:11;5.80;;;5.30;;
18875;SDS011;9570;50.854;13.778;2022-08-19T12:23:38;5.77;;;5.17;;
18875;SDS011;9570;50.854;13.778;2022-08-19T12:26:05;6.33;;;5.83;;
18875;SDS011;9570;50.854;13.778;2022-08-19T12:28:30;5.60;;;5.10;;
18875;SDS011;9570;50.854;13.778;2022-08-19T12:30:56;4.87;;;4.40;;
18875;SDS011;9570;50.854;13.778;2022-08-19T12:33:22;5.67;;;4.83;;
18875;SDS011;9570;50.854;13.778;2022-08-19T12:35:50;4.80;;;4.30;;
18875;SDS011;9570;50.854;13.778;2022-08-19T12:38:16;5.33;;;4.50;;
18875;SDS011;9570;50.854;13.778;2022-08-19T12:40:45;4.50;;;4.13;;
18875;SDS011;9570;50.854;13.778;2022-08-19T12:43:12;5.90;;;4.23;;
18875;SDS011;9570;50.854;13.778;2022-08-19T12:45:40;3.80;;;3.50;;
18875;SDS011;9570;50.854;13.778;2022-08-19T12:48:07;3.10;;;2.90;;
18875;SDS011;9570;50.854;13.778;2022-08-19T12:50:33;3.07;;;2.80;;
18875;SDS011;9570;50.854;13.778;2022-08-19T12:52:59;2.77;;;2.57;;
18875;SDS011;9570;50.854;13.778;2022-08-19T12:55:24;4.50;;;2.87;;
18875;SDS011;9570;50.854;13.778;2022-08-19T12:57:50;3.13;;;2.83;;
18875;SDS011;9570;50.854;13.778;2022-08-19T13:00:17;3.53;;;3.13;;
18875;SDS011;9570;50.854;13.778;2022-08-19T13:02:46;4.17;;;3.67;;
18875;SDS011;9570;50.854;13.778;2022-08-19T13:05:15;4.10;;;3.80;;
18875;SDS011;9570;50.854;13.778;2022-08-19T13:07:44;4.70;;;4.30;;
18875;SDS011;9570;50.854;13.778;2022-08-19T13:10:10;3.93;;;3.50;;
18875;SDS011;9570;50.854;13.778;2022-08-19T13:12:38;4.03;;;3.73;;
18875;SDS011;9570;50.854;13.778;2022-08-19T13:15:04;4.00;;;3.70;;
18875;SDS011;9570;50.854;13.778;2022-08-19T13:17:30;5.53;;;5.03;;
18875;SDS011;9570;50.854;13.778;2022-08-19T13:19:55;5.30;;;4.80;;
18875;SDS011;9570;50.854;13.778;2022-08-19T13:22:21;6.10;;;5.60;;
18875;SDS011;9570;50.854;13.778;2022-08-19T13:24:46;6.20;;;5.70;;
18875;SDS011;9570;50.854;13.778;2022-08-19T13:27:13;7.93;;;5.90;;
18875;SDS011;9570;50.854;13.778;2022-08-19T13:29:39;6.90;;;6.30;;
18875;SDS011;9570;50.854;13.778;2022-08-19T13:32:24;8.37;;;7.60;;
18875;SDS011;9570;50.854;13.778;2022-08-19T13:35:08;9.57;;;8.67;;
18875;SDS011;9570;50.854;13.778;2022-08-19T13:37:34;9.93;;;9.03;;
18875;SDS011;9570;50.854;13.778;2022-08-19T13:40:09;9.90;;;8.90;;
18875;SDS011;9570;50.854;13.778;2022-08-19T13:42:40;8.93;;;8.13;;
18875;SDS011;9570;50.854;13.778;2022-08-19T13:45:07;11.00;;;10.00;;
18875;SDS011;9570;50.854;13.778;2022-08-19T13:47:33;11.20;;;10.20;;
18875;SDS011;9570;50.854;13.778;2022-08-19T13:50:00;14.73;;;13.37;;
18875;SDS011;9570;50.854;13.778;2022-08-19T13:52:28;14.80;;;13.30;;
18875;SDS011;9570;50.854;13.778;2022-08-19T13:54:54;13.50;;;12.10;;
18875;SDS011;9570;50.854;13.778;2022-08-19T13:57:19;14.90;;;13.37;;
18875;SDS011;9570;50.854;13.778;2022-08-19T13:59:45;14.60;;;13.27;;
18875;SDS011;9570;50.854;13.778;2022-08-19T14:02:10;13.30;;;12.00;;
18875;SDS011;9570;50.854;13.778;2022-08-19T14:04:36;13.83;;;12.50;;
18875;SDS011;9570;50.854;13.778;2022-08-19T14:07:02;16.37;;;14.67;;
18875;SDS011;9570;50.854;13.778;2022-08-19T14:09:28;15.70;;;14.20;;
18875;SDS011;9570;50.854;13.778;2022-08-19T14:11:54;15.50;;;14.07;;
18875;SDS011;9570;50.854;13.778;2022-08-19T14:14:20;16.07;;;14.53;;
18875;SDS011;9570;50.854;13.778;2022-08-19T14:16:46;14.77;;;13.37;;
18875;SDS011;9570;50.854;13.778;2022-08-19T14:19:12;16.57;;;14.87;;
18875;SDS011;9570;50.854;13.778;2022-08-19T14:21:37;18.07;;;16.30;;
18875;SDS011;9570;50.854;13.778;2022-08-19T14:24:04;17.00;;;15.40;;
18875;SDS011;9570;50.854;13.778;2022-08-19T14:26:29;18.47;;;16.57;;
18875;SDS011;9570;50.854;13.778;2022-08-19T14:28:55;20.60;;;18.60;;
18875;SDS011;9570;50.854;13.778;2022-08-19T14:31:22;19.63;;;17.63;;
18875;SDS011;9570;50.854;13.778;2022-08-19T14:33:48;19.83;;;17.80;;
18875;SDS011;9570;50.854;13.778;2022-08-19T14:36:15;20.33;;;18.33;;
18875;SDS011;9570;50.854;13.778;2022-08-19T14:38:41;19.83;;;17.63;;